Главная страница
METAR-TAF:

METAR-TAF

Аэропорты :

Куусамо, Финляндия

широта: 65-58N, долгота: 029-11E, высота над уровнем моря: 262 м

Текущие метеонаблюдения

Эта сводка был подготовлена 35 минут назад, в 14:50 UTC
Ветер 4 Узел от северно-северо-западный, изменяющийся между западный и северный
Температура -2°C
Влажность 86%
Давление 1020 hPa
Видимость 10 км и более
Нет облачности ниже 1500 м, и нет кучево-дождевой облачности

METAR: EFKS 221450Z AUTO 33004KT 280V010 CAVOK M02/M04 Q1020

Время: 18:25 (15:25 UTC)

Прогноз

Эта сводка был подготовлена 47 минут назад, в 14:38 UTC
Прогноз действительный с 22-го 15 UTC до 22-го 19 UTC
Ветер 5 Узел от северный
Видимость 10 км и более
Отдельные облака на высоте 2000 фута

TAF: EFKS 221438Z 2215/2219 35005KT 9999 SCT020

Метеонаблюдения и прогнозы для более 4000 аэропортов (сводки METAR и TAF).

Имеющиеся станции представлены на карте желтыми и красными точками.

Чтобы увидеть название станции, наведите на нее мышь.

Затем щелкните, чтобы увидеть метеонаблюдения и метеопрогнозы.

Управление картой: чтобы увеличить масштаб, щелкните зеленые кнопки с черным крестиком; чтобы уменьшить масштаб, щелкните зеленую кнопку с тире; для просмотра соседних карт щелкайте зеленые стрелки.


METAR-TAF: